Time;durP1;ratioP1;P1;durP2;ratioP2;P2;SDS_P1;SDS_P2;PMS_P1;PMS_P2;Temp;Humidity;BMP_temperature;BMP_pressure;BME280_temperature;BME280_humidity;BME280_pressure;Samples;Min_cycle;Max_cycle;Signal;HPM_P1;HPM_P2
2022/07/08 00:00:52;;;;;;;;;;;23.60;58.70;;;;;;5046787;28;82151;-48
2022/07/08 00:03:18;;;;;;;;;;;23.60;58.80;;;;;;5045912;28;82776;-52
2022/07/08 00:05:44;;;;;;;;;;;23.60;58.80;;;;;;5046224;28;84248;-49
2022/07/08 00:08:10;;;;;;;;;;;23.60;58.80;;;;;;5046658;28;82136;-48
2022/07/08 00:10:35;;;;;;;;;;;23.60;58.70;;;;;;5046782;27;82116;-51
2022/07/08 00:13:01;;;;;;;;;;;23.50;59.30;;;;;;5046416;27;82728;-48
2022/07/08 00:15:26;;;;;;;;;;;23.50;58.70;;;;;;5046568;27;82156;-48
2022/07/08 00:17:52;;;;;;;;;;;23.50;58.70;;;;;;5046293;27;82535;-48
2022/07/08 00:20:18;;;;;;;;;;;23.50;58.70;;;;;;5049529;27;82291;-49
2022/07/08 00:22:43;;;;;;;;;;;23.50;58.80;;;;;;5046208;27;83151;-49
2022/07/08 00:25:09;;;;;;;;;;;23.50;58.70;;;;;;5046326;28;82621;-51
2022/07/08 00:27:34;;;;;;;;;;;23.40;58.70;;;;;;5045507;28;83123;-49
2022/07/08 00:30:00;;;;;;;;;;;23.40;58.80;;;;;;5046210;28;83336;-49
2022/07/08 00:32:25;;;;;;;;;;;23.40;58.70;;;;;;5046132;28;83002;-50
2022/07/08 00:34:51;;;;;;;;;;;23.40;58.80;;;;;;5046095;27;82085;-51
2022/07/08 00:37:17;;;;;;;;;;;23.30;58.90;;;;;;5045990;27;83853;-49
2022/07/08 00:39:42;;;;;;;;;;;23.30;58.90;;;;;;5048865;27;82950;-53
2022/07/08 00:42:08;;;;;;;;;;;23.30;58.90;;;;;;5045926;27;81960;-47
2022/07/08 00:44:34;;;;;;;;;;;23.30;58.90;;;;;;5046616;28;82346;-50
2022/07/08 00:46:59;;;;;;;;;;;23.30;59.00;;;;;;5045800;27;82308;-50
2022/07/08 00:49:25;;;;;;;;;;;23.20;59.10;;;;;;5045932;27;82421;-50
2022/07/08 00:51:50;;;;;;;;;;;23.20;58.90;;;;;;5045170;27;83777;-51
2022/07/08 00:54:18;;;;;;;;;;;23.20;59.00;;;;;;5045993;28;81986;-51
2022/07/08 00:56:43;;;;;;;;;;;23.20;59.00;;;;;;5046066;27;82159;-50
2022/07/08 00:59:09;;;;;;;;;;;23.20;59.00;;;;;;5045385;27;84353;-49
2022/07/08 01:01:35;;;;;;;;;;;23.20;58.90;;;;;;5048564;27;82142;-49
2022/07/08 01:04:01;;;;;;;;;;;23.20;59.00;;;;;;5045414;27;82576;-50
2022/07/08 01:06:27;;;;;;;;;;;23.10;59.00;;;;;;5045828;27;81975;-49
2022/07/08 01:08:52;;;;;;;;;;;23.10;59.00;;;;;;5046273;28;82540;-50
2022/07/08 01:11:19;;;;;;;;;;;23.10;59.00;;;;;;5048420;27;83102;-48
2022/07/08 01:13:44;;;;;;;;;;;23.10;59.00;;;;;;5049364;28;82079;-51
2022/07/08 01:16:10;;;;;;;;;;;23.10;59.10;;;;;;5048809;27;82934;-51
2022/07/08 01:18:35;;;;;;;;;;;23.10;59.00;;;;;;5048893;28;83005;-47
2022/07/08 01:21:02;;;;;;;;;;;23.10;59.00;;;;;;5049207;28;82000;-49
2022/07/08 01:23:27;;;;;;;;;;;23.10;59.00;;;;;;5051659;27;83159;-50
2022/07/08 01:25:54;;;;;;;;;;;23.00;58.90;;;;;;5049076;27;82074;-48
2022/07/08 01:28:19;;;;;;;;;;;23.00;58.90;;;;;;5049052;27;82020;-48
2022/07/08 01:30:45;;;;;;;;;;;23.00;58.90;;;;;;5045501;28;87238;-50
2022/07/08 01:33:10;;;;;;;;;;;23.00;58.90;;;;;;5045983;28;86342;-47
2022/07/08 01:35:36;;;;;;;;;;;23.00;59.60;;;;;;5045550;28;86999;-51
2022/07/08 01:38:02;;;;;;;;;;;22.90;58.90;;;;;;5045430;28;88017;-51
2022/07/08 01:40:27;;;;;;;;;;;22.90;59.00;;;;;;5044893;28;88013;-49
2022/07/08 01:42:53;;;;;;;;;;;22.90;59.00;;;;;;5045077;27;88927;-49
2022/07/08 01:45:19;;;;;;;;;;;22.90;58.90;;;;;;5048217;27;87979;-48
2022/07/08 01:47:44;;;;;;;;;;;22.90;58.90;;;;;;5044801;27;88792;-49
2022/07/08 01:50:10;;;;;;;;;;;22.90;58.90;;;;;;5045118;28;88192;-52
2022/07/08 01:52:35;;;;;;;;;;;22.80;58.90;;;;;;5045408;28;87187;-49
2022/07/08 01:55:01;;;;;;;;;;;22.80;59.00;;;;;;5045519;27;86994;-49
2022/07/08 01:57:26;;;;;;;;;;;22.80;59.00;;;;;;5045404;28;87269;-48
2022/07/08 01:59:52;;;;;;;;;;;22.80;59.00;;;;;;5044903;27;87222;-50
2022/07/08 02:02:18;;;;;;;;;;;22.80;59.10;;;;;;5045227;28;87394;-49
2022/07/08 02:04:44;;;;;;;;;;;22.80;59.00;;;;;;5043923;28;89051;-51
2022/07/08 02:07:10;;;;;;;;;;;22.80;59.00;;;;;;5048053;27;87267;-49
2022/07/08 02:09:37;;;;;;;;;;;22.70;58.90;;;;;;5044649;27;87917;-49
2022/07/08 02:12:18;;;;;;;;;;;22.70;58.90;;;;;;5044979;28;87119;-49
2022/07/08 02:14:46;;;;;;;;;;;22.70;58.90;;;;;;5045223;27;87516;-51
2022/07/08 02:17:12;;;;;;;;;;;22.70;58.90;;;;;;5044158;27;88543;-48
2022/07/08 02:19:38;;;;;;;;;;;22.70;59.60;;;;;;5044558;27;87017;-49
2022/07/08 02:22:04;;;;;;;;;;;22.70;58.90;;;;;;5044563;28;87442;-49
2022/07/08 02:24:29;;;;;;;;;;;22.70;58.90;;;;;;5044440;27;88184;-50
2022/07/08 02:26:55;;;;;;;;;;;22.60;58.90;;;;;;5044638;28;87096;-49
2022/07/08 02:29:20;;;;;;;;;;;22.60;58.90;;;;;;5046944;28;88376;-51
2022/07/08 02:31:46;;;;;;;;;;;22.60;59.00;;;;;;5044593;27;87069;-49
2022/07/08 02:34:11;;;;;;;;;;;22.60;59.00;;;;;;5044742;28;87609;-47
2022/07/08 02:36:37;;;;;;;;;;;22.60;58.90;;;;;;5044297;27;87486;-53
2022/07/08 02:39:03;;;;;;;;;;;22.60;59.00;;;;;;5044613;28;87144;-49
2022/07/08 02:41:29;;;;;;;;;;;22.50;58.90;;;;;;5044693;27;87777;-49
2022/07/08 02:43:55;;;;;;;;;;;22.50;58.90;;;;;;5043857;28;88668;-50
2022/07/08 02:46:20;;;;;;;;;;;22.50;59.00;;;;;;5044337;27;86401;-49
2022/07/08 02:48:46;;;;;;;;;;;22.50;58.90;;;;;;5047293;28;87060;-50
2022/07/08 02:51:12;;;;;;;;;;;22.50;59.00;;;;;;5044356;28;87127;-52
2022/07/08 02:53:37;;;;;;;;;;;22.50;59.00;;;;;;5043621;27;88814;-50
2022/07/08 02:56:03;;;;;;;;;;;22.40;59.00;;;;;;5044032;28;87315;-47
2022/07/08 02:58:28;;;;;;;;;;;22.50;59.00;;;;;;5044513;27;87108;-49
2022/07/08 03:00:54;;;;;;;;;;;22.40;59.00;;;;;;5044125;28;87257;-49
2022/07/08 03:03:19;;;;;;;;;;;22.40;59.00;;;;;;5043816;28;88152;-51
2022/07/08 03:05:45;;;;;;;;;;;22.40;59.00;;;;;;5044364;28;87093;-53
2022/07/08 03:08:10;;;;;;;;;;;22.30;59.20;;;;;;5044279;28;87085;-54
2022/07/08 03:10:36;;;;;;;;;;;22.30;59.20;;;;;;5047420;28;87305;-52
2022/07/08 03:13:01;;;;;;;;;;;22.30;59.00;;;;;;5044208;28;87346;-46
2022/07/08 03:15:27;;;;;;;;;;;22.30;59.10;;;;;;5043803;28;88007;-47
2022/07/08 03:17:52;;;;;;;;;;;22.30;59.10;;;;;;5043010;27;88036;-46
2022/07/08 03:20:18;;;;;;;;;;;22.30;59.10;;;;;;5043963;28;88825;-50
2022/07/08 03:22:44;;;;;;;;;;;22.30;59.10;;;;;;5043610;28;88056;-50
2022/07/08 03:25:09;;;;;;;;;;;22.20;59.00;;;;;;5043854;27;87118;-51
2022/07/08 03:27:35;;;;;;;;;;;22.20;59.10;;;;;;5043899;27;87310;-47
2022/07/08 03:30:01;;;;;;;;;;;22.20;59.20;;;;;;5043462;28;88222;-48
2022/07/08 03:32:26;;;;;;;;;;;22.20;59.30;;;;;;5046445;27;87109;-48
2022/07/08 03:34:52;;;;;;;;;;;22.20;59.10;;;;;;5043738;28;88826;-50
2022/07/08 03:37:18;;;;;;;;;;;22.10;59.10;;;;;;5043566;27;86932;-50
2022/07/08 03:39:43;;;;;;;;;;;22.10;59.20;;;;;;5043619;28;86948;-51
2022/07/08 03:42:09;;;;;;;;;;;22.10;59.10;;;;;;5042643;28;88793;-49
2022/07/08 03:44:34;;;;;;;;;;;22.10;59.10;;;;;;5043883;27;87040;-48
2022/07/08 03:47:00;;;;;;;;;;;22.10;59.10;;;;;;5042902;27;88960;-48
2022/07/08 03:49:26;;;;;;;;;;;22.00;59.20;;;;;;5043207;28;88021;-47
2022/07/08 03:51:51;;;;;;;;;;;22.00;59.20;;;;;;5043602;27;87036;-48
2022/07/08 03:54:17;;;;;;;;;;;22.00;59.10;;;;;;5045866;28;88072;-47
2022/07/08 03:56:42;;;;;;;;;;;22.10;59.20;;;;;;5043691;28;87351;-50
2022/07/08 03:59:08;;;;;;;;;;;22.10;59.20;;;;;;5043888;28;87477;-48
2022/07/08 04:01:33;;;;;;;;;;;22.00;59.20;;;;;;5042851;28;87760;-50
2022/07/08 04:03:59;;;;;;;;;;;22.00;59.20;;;;;;5043344;28;87132;-49
2022/07/08 04:06:24;;;;;;;;;;;22.00;59.20;;;;;;5042739;28;88084;-48
2022/07/08 04:08:50;;;;;;;;;;;22.00;59.20;;;;;;5043386;27;88016;-46
2022/07/08 04:11:15;;;;;;;;;;;22.00;59.20;;;;;;5043222;28;87168;-47
2022/07/08 04:13:41;;;;;;;;;;;22.00;59.20;;;;;;5043242;28;88091;-47
2022/07/08 04:16:11;;;;;;;;;;;22.00;59.20;;;;;;5045535;28;88053;-50
2022/07/08 04:18:37;;;;;;;;;;;21.90;59.20;;;;;;5043113;27;88943;-49
2022/07/08 04:21:03;;;;;;;;;;;21.90;59.30;;;;;;5042274;28;89495;-50
2022/07/08 04:23:28;;;;;;;;;;;21.90;59.30;;;;;;5043525;28;86457;-49
2022/07/08 04:25:54;;;;;;;;;;;21.90;59.30;;;;;;5043210;28;86893;-48
2022/07/08 04:28:19;;;;;;;;;;;21.90;59.30;;;;;;5042346;27;89471;-47
2022/07/08 04:30:45;;;;;;;;;;;21.90;59.30;;;;;;5042106;28;88086;-50
2022/07/08 04:33:10;;;;;;;;;;;21.90;59.40;;;;;;5042730;28;88419;-49
2022/07/08 04:35:36;;;;;;;;;;;21.80;59.20;;;;;;5042536;28;87972;-49
2022/07/08 04:38:02;;;;;;;;;;;21.80;59.40;;;;;;5045612;28;87136;-51
2022/07/08 04:40:28;;;;;;;;;;;21.90;59.30;;;;;;5042532;27;88019;-49
2022/07/08 04:42:53;;;;;;;;;;;21.90;59.40;;;;;;5042665;28;87114;-48
2022/07/08 04:45:19;;;;;;;;;;;21.80;59.40;;;;;;5042175;27;87563;-49
2022/07/08 04:47:46;;;;;;;;;;;21.80;59.40;;;;;;5042222;28;87369;-47
2022/07/08 04:50:11;;;;;;;;;;;21.80;59.40;;;;;;5042434;27;87013;-49
2022/07/08 04:52:37;;;;;;;;;;;21.80;59.40;;;;;;5042455;28;87398;-47
2022/07/08 04:55:03;;;;;;;;;;;21.80;59.50;;;;;;5041747;27;88949;-50
2022/07/08 04:57:32;;;;;;;;;;;21.80;59.50;;;;;;5045385;27;87039;-51
2022/07/08 05:00:00;;;;;;;;;;;21.80;59.50;;;;;;5042079;27;89497;-49
2022/07/08 05:02:26;;;;;;;;;;;21.80;59.50;;;;;;5042207;28;87086;-49
2022/07/08 05:04:52;;;;;;;;;;;21.70;59.50;;;;;;5042344;27;87343;-49
2022/07/08 05:07:18;;;;;;;;;;;21.80;59.50;;;;;;5041779;27;89554;-48
2022/07/08 05:09:44;;;;;;;;;;;21.80;59.50;;;;;;5042487;27;87040;-49
2022/07/08 05:12:09;;;;;;;;;;;21.80;59.50;;;;;;5042735;27;87207;-48
2022/07/08 05:14:35;;;;;;;;;;;21.70;59.50;;;;;;5042066;27;88078;-49
2022/07/08 05:17:00;;;;;;;;;;;21.70;59.60;;;;;;5041880;28;87166;-51
2022/07/08 05:19:26;;;;;;;;;;;21.70;59.60;;;;;;5044271;28;87852;-49
2022/07/08 05:21:51;;;;;;;;;;;21.80;59.60;;;;;;5041802;27;87159;-50
2022/07/08 05:24:17;;;;;;;;;;;21.80;59.50;;;;;;5042370;28;87494;-50
2022/07/08 05:26:43;;;;;;;;;;;21.80;59.60;;;;;;5041911;27;87990;-48
2022/07/08 05:29:08;;;;;;;;;;;21.80;59.60;;;;;;5042068;28;87124;-47
2022/07/08 05:31:34;;;;;;;;;;;21.80;59.70;;;;;;5041987;28;87494;-48
2022/07/08 05:33:59;;;;;;;;;;;21.80;59.60;;;;;;5041949;28;88341;-48
2022/07/08 05:36:25;;;;;;;;;;;21.80;59.70;;;;;;5042571;28;86416;-48
2022/07/08 05:38:50;;;;;;;;;;;21.80;59.80;;;;;;5041974;27;88052;-49
2022/07/08 05:41:16;;;;;;;;;;;21.80;59.70;;;;;;5044383;27;89458;-49
2022/07/08 05:43:41;;;;;;;;;;;21.80;59.90;;;;;;5041320;28;87992;-47
2022/07/08 05:46:07;;;;;;;;;;;21.80;59.90;;;;;;5041006;28;88040;-48
2022/07/08 05:48:33;;;;;;;;;;;21.80;59.80;;;;;;5041881;27;86963;-49
2022/07/08 05:50:58;;;;;;;;;;;21.80;59.80;;;;;;5041927;27;87018;-50
2022/07/08 05:53:24;;;;;;;;;;;21.80;60.00;;;;;;5041623;28;88273;-48
2022/07/08 05:55:49;;;;;;;;;;;21.80;60.00;;;;;;5041873;27;87253;-51
2022/07/08 05:58:15;;;;;;;;;;;21.80;59.90;;;;;;5044214;28;87541;-49
2022/07/08 06:00:40;;;;;;;;;;;21.80;60.00;;;;;;5045430;28;87190;-49
2022/07/08 06:03:06;;;;;;;;;;;21.80;60.00;;;;;;5047812;28;87191;-49
2022/07/08 06:05:32;;;;;;;;;;;21.80;60.00;;;;;;5044926;28;87929;-49
2022/07/08 06:07:58;;;;;;;;;;;21.80;60.00;;;;;;5044676;28;88056;-49
2022/07/08 06:10:23;;;;;;;;;;;21.80;60.10;;;;;;5045201;28;88308;-48
2022/07/08 06:12:50;;;;;;;;;;;21.80;60.10;;;;;;5044800;27;87970;-50
2022/07/08 06:15:15;;;;;;;;;;;21.80;60.10;;;;;;5044935;28;87048;-51
2022/07/08 06:17:41;;;;;;;;;;;21.80;60.10;;;;;;5044645;27;88703;-48
2022/07/08 06:20:07;;;;;;;;;;;21.80;60.10;;;;;;5044712;28;88031;-49
2022/07/08 06:22:33;;;;;;;;;;;21.80;60.10;;;;;;5044804;28;87090;-48
2022/07/08 06:24:59;;;;;;;;;;;21.80;60.10;;;;;;5048055;28;87568;-50
2022/07/08 06:27:25;;;;;;;;;;;21.80;60.20;;;;;;5044730;27;87473;-49
2022/07/08 06:29:50;;;;;;;;;;;21.80;60.10;;;;;;5044773;27;87378;-49
2022/07/08 06:32:16;;;;;;;;;;;21.80;60.30;;;;;;5043472;28;89273;-48
2022/07/08 06:34:41;;;;;;;;;;;21.80;60.20;;;;;;5044521;27;87118;-49
2022/07/08 06:37:07;;;;;;;;;;;21.80;60.10;;;;;;5044367;27;88692;-50
2022/07/08 06:39:32;;;;;;;;;;;21.80;60.20;;;;;;5044185;28;88449;-48
2022/07/08 06:41:58;;;;;;;;;;;21.80;60.20;;;;;;5044378;27;87094;-48
2022/07/08 06:44:23;;;;;;;;;;;21.80;60.10;;;;;;5047216;28;87702;-48
2022/07/08 06:46:49;;;;;;;;;;;21.80;60.30;;;;;;5044031;28;87182;-50
2022/07/08 06:49:14;;;;;;;;;;;21.80;60.10;;;;;;5045017;28;87217;-50
2022/07/08 06:51:40;;;;;;;;;;;21.90;60.30;;;;;;5044086;28;87251;-48
2022/07/08 06:56:50;;;;;;;;;;;21.90;60.20;;;;;;5043932;28;87879;-47
2022/07/08 06:59:15;;;;;;;;;;;21.90;60.30;;;;;;5043775;28;87155;-49
2022/07/08 07:01:41;;;;;;;;;;;21.80;60.30;;;;;;5044445;28;88327;-49
2022/07/08 07:04:07;;;;;;;;;;;21.90;60.30;;;;;;5044299;28;87428;-50
2022/07/08 07:06:33;;;;;;;;;;;21.90;60.40;;;;;;5046507;27;89452;-47
2022/07/08 07:08:59;;;;;;;;;;;21.80;60.40;;;;;;5043915;27;87372;-50
2022/07/08 07:11:24;;;;;;;;;;;21.80;60.50;;;;;;5043775;27;87960;-51
2022/07/08 07:13:49;;;;;;;;;;;21.80;60.50;;;;;;5044647;28;86691;-51
2022/07/08 07:16:15;;;;;;;;;;;21.80;60.40;;;;;;5043833;28;86982;-48
2022/07/08 07:18:40;;;;;;;;;;;21.80;60.60;;;;;;5043615;28;87348;-50
2022/07/08 07:21:06;;;;;;;;;;;21.90;60.50;;;;;;5043484;28;88073;-51
2022/07/08 07:23:32;;;;;;;;;;;21.80;60.50;;;;;;5044079;28;88405;-52
2022/07/08 07:25:57;;;;;;;;;;;21.80;60.50;;;;;;5043705;27;87938;-49
2022/07/08 07:28:23;;;;;;;;;;;21.90;60.50;;;;;;5046591;27;87129;-49
2022/07/08 07:30:49;;;;;;;;;;;21.90;61.30;;;;;;5043103;27;89291;-49
2022/07/08 07:33:14;;;;;;;;;;;21.90;60.50;;;;;;5043724;27;87211;-47
2022/07/08 07:35:40;;;;;;;;;;;21.90;60.50;;;;;;5043786;27;87530;-48
2022/07/08 07:38:05;;;;;;;;;;;21.90;60.50;;;;;;5043936;28;87287;-50
2022/07/08 07:40:31;;;;;;;;;;;21.90;60.70;;;;;;5043737;28;87016;-48
2022/07/08 07:42:56;;;;;;;;;;;21.90;60.50;;;;;;5043492;27;87470;-49
2022/07/08 07:45:22;;;;;;;;;;;21.90;61.20;;;;;;5042395;28;89215;-49
2022/07/08 07:47:47;;;;;;;;;;;21.90;60.50;;;;;;5043131;28;87098;-49
2022/07/08 07:50:13;;;;;;;;;;;21.90;60.50;;;;;;5046179;27;87210;-49
2022/07/08 07:52:39;;;;;;;;;;;21.90;60.40;;;;;;5043481;27;87458;-46
2022/07/08 07:55:05;;;;;;;;;;;21.90;60.70;;;;;;5043641;28;87215;-47
2022/07/08 07:57:31;;;;;;;;;;;21.90;60.70;;;;;;5042907;27;88839;-50
2022/07/08 07:59:56;;;;;;;;;;;21.90;60.80;;;;;;5043242;27;86883;-50
2022/07/08 08:02:22;;;;;;;;;;;21.90;60.50;;;;;;5043675;28;87489;-49
2022/07/08 08:04:47;;;;;;;;;;;21.90;60.60;;;;;;5043156;28;88174;-50
2022/07/08 08:07:13;;;;;;;;;;;21.90;60.40;;;;;;5043333;28;87069;-49
2022/07/08 08:09:38;;;;;;;;;;;21.90;60.60;;;;;;5042972;28;87989;-48
2022/07/08 08:12:04;;;;;;;;;;;22.00;60.50;;;;;;5045775;28;88218;-51
2022/07/08 08:14:29;;;;;;;;;;;21.90;60.50;;;;;;5043256;28;87488;-48
2022/07/08 08:16:55;;;;;;;;;;;21.90;60.70;;;;;;5042350;28;88183;-49
2022/07/08 08:19:20;;;;;;;;;;;22.00;60.70;;;;;;5042188;27;87099;-47
2022/07/08 08:21:46;;;;;;;;;;;22.00;60.50;;;;;;5042872;28;87491;-51
2022/07/08 08:24:11;;;;;;;;;;;22.00;61.20;;;;;;5042624;28;87906;-52
2022/07/08 08:26:37;;;;;;;;;;;22.00;60.70;;;;;;5043651;28;86280;-48
2022/07/08 08:29:03;;;;;;;;;;;22.00;60.30;;;;;;5043084;27;86990;-49
2022/07/08 08:31:28;;;;;;;;;;;22.00;60.30;;;;;;5042433;28;88045;-52
2022/07/08 08:33:54;;;;;;;;;;;22.00;60.30;;;;;;5044848;27;88448;-51
2022/07/08 08:36:19;;;;;;;;;;;22.00;60.30;;;;;;5042490;28;88057;-50
2022/07/08 08:38:46;;;;;;;;;;;22.00;60.60;;;;;;5042929;28;87169;-48
2022/07/08 08:41:12;;;;;;;;;;;22.00;60.30;;;;;;5042893;28;88278;-49
2022/07/08 08:43:38;;;;;;;;;;;22.00;60.20;;;;;;5042423;27;88371;-49
2022/07/08 08:46:04;;;;;;;;;;;22.00;60.50;;;;;;5042297;28;87165;-47
2022/07/08 08:48:35;;;;;;;;;;;22.00;60.30;;;;;;5042799;27;87392;-50
2022/07/08 08:51:03;;;;;;;;;;;22.00;60.10;;;;;;5042532;27;88420;-49
2022/07/08 08:53:40;;;;;;;;;;;22.10;60.20;;;;;;5045202;27;86881;-48
2022/07/08 08:56:10;;;;;;;;;;;22.10;60.10;;;;;;5042130;27;89544;-49
2022/07/08 08:58:39;;;;;;;;;;;22.10;60.10;;;;;;5041290;27;88130;-52
2022/07/08 09:01:08;;;;;;;;;;;22.10;60.10;;;;;;5042259;27;89933;-49
2022/07/08 09:03:36;;;;;;;;;;;22.10;60.10;;;;;;5042246;27;87856;-51
2022/07/08 09:06:02;;;;;;;;;;;22.10;60.10;;;;;;5042499;27;87649;-52
2022/07/08 09:08:28;;;;;;;;;;;22.10;60.10;;;;;;5042220;27;88574;-50
2022/07/08 09:10:54;;;;;;;;;;;22.10;60.10;;;;;;5042128;28;88020;-50
2022/07/08 09:13:23;;;;;;;;;;;22.10;60.10;;;;;;5042279;28;87110;-49
2022/07/08 09:15:50;;;;;;;;;;;22.10;60.10;;;;;;5045228;27;89346;-51
2022/07/08 09:18:19;;;;;;;;;;;22.20;60.10;;;;;;5042341;27;87089;-50
2022/07/08 09:20:51;;;;;;;;;;;22.20;60.10;;;;;;5042236;28;87426;-48
2022/07/08 09:23:18;;;;;;;;;;;22.20;60.00;;;;;;5041224;28;89045;-50
2022/07/08 09:25:44;;;;;;;;;;;22.20;59.90;;;;;;5042009;27;86975;-51
2022/07/08 09:28:10;;;;;;;;;;;22.20;59.80;;;;;;5042349;27;87291;-50
2022/07/08 09:30:36;;;;;;;;;;;22.30;59.80;;;;;;5042124;28;88098;-51
2022/07/08 09:33:02;;;;;;;;;;;22.30;59.90;;;;;;5045925;27;87113;-49
2022/07/08 09:35:35;;;;;;;;;;;22.20;59.80;;;;;;5045438;27;89362;-52
2022/07/08 09:38:07;;;;;;;;;;;22.30;59.80;;;;;;5047904;27;89532;-52
2022/07/08 09:40:33;;;;;;;;;;;22.30;59.90;;;;;;5045777;28;87456;-50
2022/07/08 09:42:59;;;;;;;;;;;22.30;59.90;;;;;;5045028;27;87823;-50
2022/07/08 09:45:34;;;;;;;;;;;22.30;60.40;;;;;;5045706;27;87048;-48
2022/07/08 09:48:00;;;;;;;;;;;22.30;59.70;;;;;;5044567;28;88080;-47
2022/07/08 09:50:35;;;;;;;;;;;22.40;59.80;;;;;;5045210;28;87766;-48
2022/07/08 09:53:09;;;;;;;;;;;22.40;59.60;;;;;;5045356;28;87202;-49
2022/07/08 09:55:37;;;;;;;;;;;22.40;59.60;;;;;;5045491;28;87394;-48
2022/07/08 09:58:04;;;;;;;;;;;22.40;59.60;;;;;;5044999;27;88171;-49
2022/07/08 10:00:29;;;;;;;;;;;22.40;59.70;;;;;;5048095;27;87008;-48
2022/07/08 10:02:55;;;;;;;;;;;22.40;59.60;;;;;;5045004;27;87251;-50
2022/07/08 10:05:20;;;;;;;;;;;22.50;59.70;;;;;;5045351;27;86387;-49
2022/07/08 10:07:46;;;;;;;;;;;22.50;59.70;;;;;;5045458;28;86975;-50
2022/07/08 10:10:12;;;;;;;;;;;22.50;59.70;;;;;;5044826;27;87956;-49
2022/07/08 10:12:38;;;;;;;;;;;22.50;59.70;;;;;;5044506;27;88760;-52
2022/07/08 10:15:04;;;;;;;;;;;22.50;59.70;;;;;;5045104;27;88299;-49
2022/07/08 10:17:33;;;;;;;;;;;22.50;59.60;;;;;;5044732;27;87995;-51
2022/07/08 10:20:00;;;;;;;;;;;22.50;59.60;;;;;;5044693;27;87288;-48
2022/07/08 10:22:25;;;;;;;;;;;22.60;59.50;;;;;;5047354;28;87845;-50
2022/07/08 10:24:52;;;;;;;;;;;22.60;59.50;;;;;;5045084;27;87149;-49
2022/07/08 10:27:17;;;;;;;;;;;22.60;59.30;;;;;;5044798;27;89050;-48
2022/07/08 10:29:43;;;;;;;;;;;22.60;59.40;;;;;;5044943;28;87352;-48
2022/07/08 10:32:22;;;;;;;;;;;22.60;58.90;;;;;;5044547;28;87151;-48
2022/07/08 10:35:05;;;;;;;;;;;22.60;59.10;;;;;;5044316;27;88789;-47
2022/07/08 10:37:44;;;;;;;;;;;22.70;59.00;;;;;;5043822;28;88848;-49
2022/07/08 10:40:11;;;;;;;;;;;22.70;59.00;;;;;;5044780;27;87131;-49
2022/07/08 10:42:37;;;;;;;;;;;22.70;59.10;;;;;;5043784;27;87403;-49
2022/07/08 10:45:02;;;;;;;;;;;22.70;59.00;;;;;;5047076;28;87952;-49
2022/07/08 10:47:28;;;;;;;;;;;22.70;58.70;;;;;;5043493;27;89217;-53
2022/07/08 10:50:02;;;;;;;;;;;22.80;58.90;;;;;;5044128;27;88149;-49
2022/07/08 10:52:31;;;;;;;;;;;22.80;58.70;;;;;;5044694;27;87009;-48
2022/07/08 10:55:12;;;;;;;;;;;22.80;58.80;;;;;;5044800;28;87520;-47
2022/07/08 10:57:38;;;;;;;;;;;22.80;58.50;;;;;;5043906;27;88021;-50
2022/07/08 11:00:03;;;;;;;;;;;22.90;58.60;;;;;;5044078;27;87115;-49
2022/07/08 11:02:29;;;;;;;;;;;22.90;58.60;;;;;;5043906;28;88025;-50
2022/07/08 11:04:56;;;;;;;;;;;22.90;58.70;;;;;;5047042;27;88059;-49
2022/07/08 11:07:33;;;;;;;;;;;22.90;58.70;;;;;;5043984;28;88359;-54
2022/07/08 11:10:01;;;;;;;;;;;22.90;58.50;;;;;;5044158;27;87879;-51
2022/07/08 11:12:32;;;;;;;;;;;22.90;58.60;;;;;;5043665;27;87015;-51
2022/07/08 11:14:58;;;;;;;;;;;23.00;58.70;;;;;;5044121;27;88858;-50
2022/07/08 11:17:31;;;;;;;;;;;23.00;58.70;;;;;;5043593;28;87296;-48
2022/07/08 11:19:57;;;;;;;;;;;23.00;58.60;;;;;;5044560;28;86393;-50
2022/07/08 11:22:23;;;;;;;;;;;23.00;58.60;;;;;;5043881;28;88145;-51
2022/07/08 11:24:49;;;;;;;;;;;23.00;58.60;;;;;;5043672;27;87045;-51
2022/07/08 11:27:16;;;;;;;;;;;23.00;58.70;;;;;;5045965;27;88071;-51
2022/07/08 11:29:51;;;;;;;;;;;23.10;58.60;;;;;;5043540;27;89419;-49
2022/07/08 11:32:17;;;;;;;;;;;23.10;58.50;;;;;;5043674;27;87271;-49
2022/07/08 11:34:43;;;;;;;;;;;23.10;58.50;;;;;;5043874;28;87481;-51
2022/07/08 11:37:09;;;;;;;;;;;23.10;58.50;;;;;;5043642;27;88105;-50
2022/07/08 11:39:34;;;;;;;;;;;23.10;58.40;;;;;;5043450;27;87207;-50
2022/07/08 11:42:00;;;;;;;;;;;23.20;58.30;;;;;;5043786;27;87367;-50
2022/07/08 11:44:26;;;;;;;;;;;23.20;58.10;;;;;;5043657;28;87268;-51
2022/07/08 11:46:52;;;;;;;;;;;23.20;58.20;;;;;;5043140;28;87299;-52
2022/07/08 11:49:18;;;;;;;;;;;23.20;58.30;;;;;;5046147;28;87458;-47
2022/07/08 11:51:45;;;;;;;;;;;23.20;58.20;;;;;;5043163;27;88878;-51
2022/07/08 11:54:10;;;;;;;;;;;23.20;58.40;;;;;;5042262;27;90220;-50
2022/07/08 11:56:36;;;;;;;;;;;23.30;58.10;;;;;;5042661;27;87961;-48
2022/07/08 11:59:01;;;;;;;;;;;23.30;58.10;;;;;;5043533;27;87111;-50
2022/07/08 12:01:27;;;;;;;;;;;23.30;58.10;;;;;;5043126;27;88540;-50
2022/07/08 12:03:52;;;;;;;;;;;23.30;58.20;;;;;;5043303;28;88150;-51
2022/07/08 12:06:22;;;;;;;;;;;23.30;58.20;;;;;;5043424;27;86919;-50
2022/07/08 12:08:48;;;;;;;;;;;23.40;58.20;;;;;;5043497;28;87840;-51
2022/07/08 12:11:14;;;;;;;;;;;23.40;58.20;;;;;;5045662;27;88735;-47
2022/07/08 12:13:46;;;;;;;;;;;23.40;58.10;;;;;;5043096;27;89110;-48
2022/07/08 12:16:30;;;;;;;;;;;23.40;58.00;;;;;;5041863;27;90936;-50
2022/07/08 12:18:55;;;;;;;;;;;23.40;58.10;;;;;;5043213;27;87177;-51
2022/07/08 12:21:21;;;;;;;;;;;23.40;58.20;;;;;;5043018;27;87454;-50
2022/07/08 12:24:03;;;;;;;;;;;23.40;58.20;;;;;;5042829;27;87206;-49
2022/07/08 12:26:29;;;;;;;;;;;23.40;58.20;;;;;;5042755;27;87031;-51
2022/07/08 12:28:55;;;;;;;;;;;23.40;58.30;;;;;;5043198;27;87420;-48
2022/07/08 12:31:37;;;;;;;;;;;23.40;58.20;;;;;;5042638;27;88117;-50
2022/07/08 12:34:04;;;;;;;;;;;23.40;58.40;;;;;;5045973;28;86382;-51
2022/07/08 12:36:29;;;;;;;;;;;23.40;59.10;;;;;;5042525;27;87817;-49
2022/07/08 12:38:55;;;;;;;;;;;23.40;58.50;;;;;;5042669;28;87205;-49
2022/07/08 12:41:21;;;;;;;;;;;23.40;58.50;;;;;;5042182;28;88042;-50
2022/07/08 12:43:47;;;;;;;;;;;23.50;58.60;;;;;;5042110;27;88214;-49
2022/07/08 12:46:12;;;;;;;;;;;23.50;58.60;;;;;;5042062;27;87107;-48
2022/07/08 12:48:38;;;;;;;;;;;23.50;58.60;;;;;;5042783;27;86997;-50
2022/07/08 12:51:03;;;;;;;;;;;23.50;58.60;;;;;;5042262;27;87893;-49
2022/07/08 12:53:29;;;;;;;;;;;23.50;58.60;;;;;;5042871;27;86920;-48
2022/07/08 12:55:55;;;;;;;;;;;23.50;58.60;;;;;;5045278;27;88813;-52
2022/07/08 12:58:24;;;;;;;;;;;23.50;58.60;;;;;;5043248;27;86693;-51
2022/07/08 13:00:52;;;;;;;;;;;23.50;58.60;;;;;;5042374;27;86967;-49
2022/07/08 13:03:18;;;;;;;;;;;23.50;58.70;;;;;;5041933;28;87959;-50
2022/07/08 13:05:43;;;;;;;;;;;23.50;58.70;;;;;;5042294;27;88145;-50
2022/07/08 13:08:09;;;;;;;;;;;23.50;58.80;;;;;;5046219;27;88415;-49
2022/07/08 13:10:35;;;;;;;;;;;23.60;58.80;;;;;;5045557;27;89792;-53
2022/07/08 13:13:06;;;;;;;;;;;23.60;59.00;;;;;;5045858;27;87254;-50
2022/07/08 13:15:35;;;;;;;;;;;23.60;59.10;;;;;;5048372;27;87904;-50
2022/07/08 13:18:00;;;;;;;;;;;23.60;59.20;;;;;;5046044;28;87111;-50
2022/07/08 13:20:26;;;;;;;;;;;23.60;59.30;;;;;;5046091;27;87511;-49
2022/07/08 13:22:51;;;;;;;;;;;23.60;59.30;;;;;;5046003;28;87497;-49
2022/07/08 13:25:17;;;;;;;;;;;23.60;59.50;;;;;;5046018;28;87214;-48
2022/07/08 13:27:44;;;;;;;;;;;23.50;59.50;;;;;;5045569;27;87896;-54
2022/07/08 13:30:13;;;;;;;;;;;23.50;59.70;;;;;;5044504;28;90445;-51
2022/07/08 13:32:39;;;;;;;;;;;23.50;59.80;;;;;;5045686;27;87123;-49
2022/07/08 13:35:04;;;;;;;;;;;23.50;59.80;;;;;;5045821;28;87472;-50
2022/07/08 13:37:30;;;;;;;;;;;23.50;59.90;;;;;;5048393;27;88358;-51
2022/07/08 13:39:56;;;;;;;;;;;23.50;60.00;;;;;;5045591;27;87434;-50
2022/07/08 13:42:21;;;;;;;;;;;23.50;60.00;;;;;;5045329;28;88158;-48
2022/07/08 13:44:47;;;;;;;;;;;23.50;60.10;;;;;;5044807;27;87032;-51
2022/07/08 13:47:12;;;;;;;;;;;23.50;60.10;;;;;;5045693;28;87405;-51
2022/07/08 13:49:38;;;;;;;;;;;23.50;60.10;;;;;;5045133;27;87190;-48
2022/07/08 13:52:04;;;;;;;;;;;23.50;60.10;;;;;;5045323;27;87215;-50
2022/07/08 13:54:29;;;;;;;;;;;23.50;60.10;;;;;;5044709;27;87925;-48
2022/07/08 13:56:55;;;;;;;;;;;23.50;60.10;;;;;;5045016;28;88126;-49
2022/07/08 13:59:20;;;;;;;;;;;23.50;60.10;;;;;;5048381;28;87087;-51
2022/07/08 14:01:46;;;;;;;;;;;23.50;60.20;;;;;;5044670;28;88044;-48
2022/07/08 14:04:11;;;;;;;;;;;23.50;60.20;;;;;;5045322;28;87378;-50
2022/07/08 14:06:37;;;;;;;;;;;23.50;60.30;;;;;;5044971;27;87852;-49
2022/07/08 14:09:03;;;;;;;;;;;23.50;60.30;;;;;;5045013;27;87842;-49
2022/07/08 14:11:28;;;;;;;;;;;23.50;60.30;;;;;;5045737;27;86186;-52
2022/07/08 14:13:54;;;;;;;;;;;23.50;60.30;;;;;;5044724;27;88326;-49